الصفحة الرئيسية
METAR-TAF:

METAR-TAF

مطار :

كوراساو, جزر الأنتيل الهولندية

دائرة عرض: 12-12N, خط طول: 068-58W, ارتفاع: 9 متر

مراقبة الطقس الحالي

تاريخ ووقت الإصدار 37 دقيقة قبل الساعة 17:00UTC
ريح 12 عقدة من الشرق
درجة الحرارة 30°درجة مئوية
الرطوبة 66%
ضغط 1014 hPa
الرؤية 10 كم أو أكثر
غيوم قليلة على ارتفاع 2400 قدم

METAR: TNCC 161700Z 10012KT 9999 FEW024 30/23 Q1014 NOSIG

زمن: 13:37 (17:37 UTC)

توقعات

تاريخ ووقت الإصدار 1ساعة و 37 دقيقة قبل الساعة 16:00UTC
التوقعات صالحة من16 الساعة 18 UTC إلى 17 الساعة 18 UTC
ريح 13 عقدة من الشرق
الرؤية 10 كم أو أكثر
غيوم متفرقة على ارتفاع 1800 قدم
مؤقت
من 17 الساعة 06 UTC إلى 17 الساعة 10 UTC
غيوم مفككة على ارتفاع 1400 قدم

TAF: TNCC 161600Z 1618/1718 10013KT 9999 SCT018 TEMPO 1706/1710 BKN014

أرصاد الطقس والتوقعات من أكثر من 4000 مطار (تقارير الطقس للمطار METAR والتنبؤ بالطقس بالمطارTAF).

المحطات المتاحة هي النقط الصفراء والحمراء على الخريطة.

حرك المؤشر فوق النقطة لمعرفة اسم المحطة.

ثم انقر لمعرفة أرصاد وتوقعات الطقس.

لتغيير الخارطة: اضغط على الأزرار الخضراء مع رمز الصليب الأسود للتكبير. على الزر الأخضر مع شرطة للتصغير، أو على الأسهم الخضراء للخرائط المجاورة.


METAR-TAF: